Terminal Aerodrome Forecast
Issued by NWS Sioux Falls, SD

Home | Current Version | Previous Version | Text Only | Print | Product List | Glossary On
Versions: 1 2 3 4 5 6 7 8 9 10 11 12 13 14 15 16 17 18 19
625
FTUS43 KFSD 262320
TAFFSD
TAF
KFSD 262320Z 2700/2724 10005KT P6SM BKN120
     FM270400 10004KT P6SM SHRA VCTS BKN090CB
     FM270900 08004KT 3SM SHRA VCTS OVC040CB
     FM271200 08004KT P6SM BKN020
     FM271800 20006KT P6SM SCT020 OVC045
     FM272100 33006KT P6SM BKN045=

USA.gov is the U.S. government's official web portal to all federal, state and local government web resources and services.